Time;durP1;ratioP1;P1;durP2;ratioP2;P2;SDS_P1;SDS_P2;PMS_P1;PMS_P2;Temp;Humidity;BMP_temperature;BMP_pressure;BME280_temperature;BME280_humidity;BME280_pressure;Samples;Min_cycle;Max_cycle;Signal;HPM_P1;HPM_P2
2022/06/30 00:01:20;;;;;;;14.82;8.20;;;;;;;19.35;73.29;101035.44;5010289;28;20037;-30
2022/06/30 00:03:46;;;;;;;14.25;8.27;;;;;;;19.39;73.15;101030.38;5011111;28;20026;-29
2022/06/30 00:06:11;;;;;;;19.20;9.50;;;;;;;19.37;73.05;101027.88;5010498;28;20034;-30
2022/06/30 00:08:36;;;;;;;11.30;8.93;;;;;;;19.34;73.34;101025.63;5010441;28;20030;-30
2022/06/30 00:11:06;;;;;;;13.77;8.45;;;;;;;19.36;73.01;101022.66;5009214;28;20026;-30
2022/06/30 00:13:33;;;;;;;22.02;10.18;;;;;;;19.30;73.48;101017.06;5010583;28;20088;-30
2022/06/30 00:15:59;;;;;;;13.07;9.00;;;;;;;19.30;73.27;101019.81;5010405;28;20393;-30
2022/06/30 00:18:24;;;;;;;15.10;9.38;;;;;;;19.26;73.24;101015.03;5010189;28;20026;-30
2022/06/30 00:20:49;;;;;;;18.27;9.70;;;;;;;19.19;73.57;101011.59;5010062;28;20030;-29
2022/06/30 00:23:15;;;;;;;17.52;10.27;;;;;;;19.15;74.06;101010.41;5010030;28;20048;-29
2022/06/30 00:25:40;;;;;;;16.00;10.65;;;;;;;19.16;73.80;101003.88;5009858;28;20030;-29
2022/06/30 00:28:05;;;;;;;17.30;11.10;;;;;;;19.13;73.76;101005.19;5010070;28;20128;-30
2022/06/30 00:30:31;;;;;;;20.80;11.25;;;;;;;19.14;74.02;101006.00;5010180;28;20036;-31
2022/06/30 00:32:56;;;;;;;23.65;11.35;;;;;;;19.14;74.09;101003.28;5009828;28;20084;-29
2022/06/30 00:35:22;;;;;;;16.45;11.07;;;;;;;19.07;74.28;101004.22;5009835;28;20341;-30
2022/06/30 00:37:47;;;;;;;21.17;10.20;;;;;;;18.99;74.40;101001.84;5009858;28;20325;-30
2022/06/30 00:40:12;;;;;;;19.08;10.80;;;;;;;18.98;74.78;100991.97;5009902;28;20099;-30
2022/06/30 00:42:38;;;;;;;20.17;10.60;;;;;;;18.93;75.08;101000.06;5009757;28;20041;-29
2022/06/30 00:45:04;;;;;;;18.08;11.57;;;;;;;18.94;75.36;101003.59;5010298;28;20036;-30
2022/06/30 00:47:29;;;;;;;18.88;11.30;;;;;;;18.88;75.28;100997.19;5008233;28;20042;-31
2022/06/30 00:49:54;;;;;;;23.08;12.32;;;;;;;18.78;75.88;101018.75;5009581;28;20026;-29
2022/06/30 00:52:21;;;;;;;18.92;11.35;;;;;;;18.65;76.74;101031.47;5008412;28;20076;-30
2022/06/30 00:54:48;;;;;;;18.92;11.52;;;;;;;18.64;77.10;101035.25;5009760;28;20092;-30
2022/06/30 00:57:14;;;;;;;17.60;9.50;;;;;;;18.70;78.01;101032.66;5011915;28;20033;-31
2022/06/30 00:59:40;;;;;;;19.15;10.88;;;;;;;18.75;77.83;101030.13;5013561;28;20481;-29
2022/06/30 01:02:06;;;;;;;18.10;10.38;;;;;;;18.81;77.65;101034.63;5012509;28;20485;-30
2022/06/30 01:04:33;;;;;;;17.05;9.30;;;;;;;18.84;77.87;101042.34;5013989;28;20543;-30
2022/06/30 01:07:00;;;;;;;18.43;10.47;;;;;;;18.85;77.90;101041.28;5013892;28;20034;-30
2022/06/30 01:14:54;;;;;;;17.90;10.20;;;;;;;18.86;78.75;101053.84;5013513;28;20053;-30
2022/06/30 01:17:20;;;;;;;13.90;9.13;;;;;;;18.85;78.72;101041.28;5011409;28;20100;-29
2022/06/30 01:19:56;;;;;;;17.23;9.43;;;;;;;18.83;78.22;101032.50;5012589;28;20480;-29
2022/06/30 01:22:21;;;;;;;17.50;8.95;;;;;;;18.82;78.30;101041.75;5028617;28;20540;-29
2022/06/30 01:24:47;;;;;;;13.13;8.30;;;;;;;18.80;78.30;101049.31;5012324;28;20040;-30
2022/06/30 01:27:12;;;;;;;23.00;9.48;;;;;;;18.82;78.02;101039.00;5012226;28;20025;-31
2022/06/30 01:29:38;;;;;;;17.52;8.65;;;;;;;18.83;77.61;101037.97;5011742;28;20137;-30
2022/06/30 01:32:04;;;;;;;17.20;9.20;;;;;;;18.83;77.88;101032.50;5013052;28;20068;-31
2022/06/30 01:34:29;;;;;;;20.60;8.80;;;;;;;18.79;77.93;101042.22;5013045;28;20069;-30
2022/06/30 01:36:55;;;;;;;22.42;9.60;;;;;;;18.79;78.32;101053.13;5013306;28;20025;-29
2022/06/30 01:39:20;;;;;;;15.88;8.40;;;;;;;18.76;77.89;101042.69;5013107;28;20465;-31
2022/06/30 01:41:45;;;;;;;18.90;8.77;;;;;;;18.78;77.76;101029.66;5013298;28;20069;-30
2022/06/30 01:44:11;;;;;;;13.60;8.13;;;;;;;18.76;77.46;101034.50;5012810;28;20116;-29
2022/06/30 01:46:50;;;;;;;15.55;8.32;;;;;;;18.70;77.62;101055.31;5013023;28;20615;-29
2022/06/30 01:49:16;;;;;;;17.33;8.18;;;;;;;18.66;77.20;101043.19;5011380;28;20040;-31
2022/06/30 01:51:41;;;;;;;15.57;7.65;;;;;;;18.70;75.52;101021.78;5012424;28;20026;-29
2022/06/30 01:54:10;;;;;;;13.77;6.90;;;;;;;18.65;75.20;101031.47;5011513;28;20261;-28
2022/06/30 01:56:37;;;;;;;12.02;6.47;;;;;;;18.59;75.00;101062.38;5011119;28;20030;-28
2022/06/30 01:59:03;;;;;;;12.63;6.03;;;;;;;18.60;74.89;101050.41;5012832;28;20097;-28
2022/06/30 02:01:28;;;;;;;13.43;5.72;;;;;;;18.68;73.56;101032.06;5012705;28;20038;-29
2022/06/30 02:03:53;;;;;;;13.98;5.28;;;;;;;18.61;73.73;101041.16;5012570;28;20418;-28
2022/06/30 02:06:19;;;;;;;10.55;5.05;;;;;;;18.60;73.66;101050.41;5011294;28;20045;-28
2022/06/30 02:08:44;;;;;;;18.38;4.90;;;;;;;18.68;72.49;101027.44;5012044;28;20049;-29
2022/06/30 02:11:10;;;;;;;16.17;4.22;;;;;;;18.62;72.77;101031.91;5012783;28;20092;-29
2022/06/30 02:13:35;;;;;;;13.90;4.20;;;;;;;18.57;72.92;101037.22;5011339;28;20021;-29
2022/06/30 02:16:00;;;;;;;9.60;3.80;;;;;;;18.57;73.24;101037.22;5012502;28;20041;-28
2022/06/30 02:18:26;;;;;;;9.90;3.85;;;;;;;18.59;72.68;101032.38;5010814;28;20026;-28
2022/06/30 02:20:51;;;;;;;9.10;3.50;;;;;;;18.61;72.32;101027.50;5010921;28;20030;-29
2022/06/30 02:23:16;;;;;;;8.80;3.53;;;;;;;18.62;72.47;101031.09;5012247;28;20111;-29
2022/06/30 02:25:42;;;;;;;11.52;3.40;;;;;;;18.61;72.10;101030.25;5012303;28;20072;-30
2022/06/30 02:28:08;;;;;;;11.15;3.50;;;;;;;18.57;72.24;101033.69;5012234;28;20064;-29
2022/06/30 02:30:34;;;;;;;11.02;3.08;;;;;;;18.55;72.28;101042.06;5010912;28;20033;-29
2022/06/30 02:35:35;;;;;;;6.50;2.70;;;;;;;18.47;71.14;101028.75;4999226;23;20054;-34
2022/06/30 02:38:08;;;;;;;4.40;1.90;;;;;;;18.44;71.60;101034.69;4993792;28;20562;-36
2022/06/30 02:40:33;;;;;;;9.32;2.50;;;;;;;18.39;71.24;101034.53;4993058;28;20481;-35
2022/06/30 02:42:59;;;;;;;9.10;2.80;;;;;;;18.38;71.99;101039.16;4993205;28;20042;-36
2022/06/30 02:45:24;;;;;;;7.22;2.50;;;;;;;18.36;71.81;101035.00;4992874;28;20035;-35
2022/06/30 02:47:50;;;;;;;7.03;2.35;;;;;;;18.30;71.62;101028.56;4992717;28;20034;-34
2022/06/30 02:50:15;;;;;;;7.22;2.55;;;;;;;18.29;72.00;101026.06;4993105;28;20033;-34
2022/06/30 02:52:42;;;;;;;10.18;2.72;;;;;;;18.28;71.91;101018.97;4992740;28;20026;-36
2022/06/30 02:55:07;;;;;;;5.95;2.47;;;;;;;18.26;72.32;101026.53;4992257;28;20401;-35
2022/06/30 02:57:35;;;;;;;9.82;2.50;;;;;;;18.24;72.43;101024.03;4992346;28;20045;-35
2022/06/30 03:00:01;;;;;;;10.55;2.63;;;;;;;18.28;72.21;101024.41;4992769;28;20248;-34
2022/06/30 03:02:26;;;;;;;7.10;2.80;;;;;;;18.26;72.17;101021.09;4992108;28;20089;-34
2022/06/30 03:04:52;;;;;;;5.60;2.22;;;;;;;18.24;72.40;101017.75;4992274;28;20030;-33
2022/06/30 03:07:17;;;;;;;8.25;2.45;;;;;;;18.22;72.25;101020.72;4992772;28;20121;-34
2022/06/30 03:09:43;;;;;;;6.90;2.45;;;;;;;18.17;72.31;101012.41;4992247;28;20070;-34
2022/06/30 03:12:08;;;;;;;7.15;2.33;;;;;;;18.15;72.47;101020.78;4992086;28;20031;-35
2022/06/30 03:14:34;;;;;;;7.88;2.40;;;;;;;18.15;71.95;101025.41;4991769;28;20027;-33
2022/06/30 03:16:59;;;;;;;6.63;2.00;;;;;;;18.14;72.64;101021.84;4992573;28;20034;-35
2022/06/30 03:19:24;;;;;;;5.65;2.15;;;;;;;18.13;72.15;101003.81;4991747;28;20056;-33
2022/06/30 03:21:53;;;;;;;7.80;2.20;;;;;;;18.16;71.87;101000.66;4991915;28;20061;-33
2022/06/30 03:24:19;;;;;;;8.00;2.08;;;;;;;18.13;72.15;101003.81;4992177;28;20481;-35
2022/06/30 03:26:44;;;;;;;5.88;1.80;;;;;;;18.08;73.16;100998.22;4992447;28;20026;-36
2022/06/30 03:29:10;;;;;;;6.80;2.45;;;;;;;18.03;74.12;100995.34;4991238;28;20066;-34
2022/06/30 03:31:35;;;;;;;7.75;2.22;;;;;;;18.01;75.14;101000.22;4992128;28;20080;-34
2022/06/30 03:34:01;;;;;;;8.75;2.00;;;;;;;17.95;75.36;100985.59;4991141;28;20528;-34
2022/06/30 03:36:26;;;;;;;5.25;2.08;;;;;;;17.93;76.09;100984.16;4991604;28;20181;-33
2022/06/30 03:38:51;;;;;;;6.43;2.13;;;;;;;17.88;76.96;100986.75;4991198;28;20049;-34
2022/06/30 03:41:17;;;;;;;8.90;2.78;;;;;;;17.84;77.57;100996.44;4991806;28;20113;-35
2022/06/30 03:43:42;;;;;;;10.18;2.30;;;;;;;17.82;77.87;100993.91;4991084;28;20038;-34
2022/06/30 03:46:08;;;;;;;9.88;2.58;;;;;;;17.79;78.50;101005.25;4991683;28;20359;-33
2022/06/30 03:48:35;;;;;;;10.38;2.70;;;;;;;17.72;79.09;101008.03;4991313;28;20058;-34
2022/06/30 03:51:04;;;;;;;9.60;2.88;;;;;;;17.71;79.62;101003.63;4990682;28;20154;-34
2022/06/30 03:53:29;;;;;;;9.20;2.70;;;;;;;17.68;79.95;101012.25;4991741;28;20030;-34
2022/06/30 03:55:55;;;;;;;9.88;3.22;;;;;;;17.69;80.90;101023.97;4991447;28;20044;-35
2022/06/30 03:58:21;;;;;;;15.68;4.28;;;;;;;17.72;81.16;101021.66;4991161;28;20062;-35
2022/06/30 04:00:46;;;;;;;9.98;4.13;;;;;;;17.75;81.19;101006.75;4991293;28;20054;-34
2022/06/30 04:03:12;;;;;;;9.23;4.38;;;;;;;17.80;81.47;101000.66;4990433;28;20062;-34
2022/06/30 04:05:38;;;;;;;10.18;4.68;;;;;;;17.82;81.50;101014.88;4991546;28;20034;-34
2022/06/30 04:08:03;;;;;;;9.80;5.20;;;;;;;17.80;82.56;101023.28;4991189;28;20381;-34
2022/06/30 04:10:29;;;;;;;12.20;5.93;;;;;;;17.77;82.90;101046.31;4990816;28;20125;-34
2022/06/30 04:12:54;;;;;;;9.20;5.75;;;;;;;17.80;83.80;101055.09;4989686;28;20018;-34
2022/06/30 04:15:20;;;;;;;16.45;7.63;;;;;;;17.80;83.82;101033.31;4989430;28;20136;-36
2022/06/30 04:17:45;;;;;;;13.18;6.78;;;;;;;17.86;84.02;101046.03;4991392;28;20037;-39
2022/06/30 04:20:17;;;;;;;13.15;6.55;;;;;;;17.89;84.41;101054.59;4991621;28;20031;-34
2022/06/30 04:22:44;;;;;;;15.75;6.40;;;;;;;17.94;84.11;101054.75;4991446;28;20031;-34
2022/06/30 04:25:10;;;;;;;8.87;5.23;;;;;;;18.00;83.77;101055.72;4991034;28;20040;-34
2022/06/30 04:27:35;;;;;;;11.73;4.68;;;;;;;18.02;82.91;101048.16;4987974;28;20725;-33
2022/06/30 04:30:01;;;;;;;13.57;3.80;;;;;;;18.05;82.74;101058.59;4982852;28;20034;-34
2022/06/30 04:32:38;;;;;;;11.10;3.67;;;;;;;18.06;82.74;101059.44;4980991;28;20046;-34
2022/06/30 04:35:08;;;;;;;20.83;3.75;;;;;;;18.10;82.49;101072.38;4979573;28;20482;-34
2022/06/30 04:37:34;;;;;;;11.60;3.17;;;;;;;18.09;82.11;101076.19;4987412;28;20117;-34
2022/06/30 04:42:44;;;;;;;15.82;3.05;;;;;;;18.18;80.88;101058.47;4988564;28;20505;-35
2022/06/30 04:45:10;;;;;;;12.15;2.88;;;;;;;18.24;80.84;101078.50;4987534;28;20105;-34
2022/06/30 04:47:36;;;;;;;10.48;2.55;;;;;;;18.30;80.67;101071.31;4990586;28;20030;-35
2022/06/30 04:50:05;;;;;;;11.80;2.85;;;;;;;18.37;79.98;101081.06;4990252;28;20025;-34
2022/06/30 04:52:31;;;;;;;12.77;3.20;;;;;;;18.51;79.87;101076.31;4990611;28;20034;-36
2022/06/30 04:54:56;;;;;;;8.15;2.33;;;;;;;18.65;79.05;101091.44;4990151;28;20038;-37
2022/06/30 04:57:22;;;;;;;10.32;2.33;;;;;;;18.81;78.19;101091.91;4990441;28;20022;-37
2022/06/30 04:59:47;;;;;;;12.95;2.90;;;;;;;18.86;76.75;101097.50;4990287;28;20037;-37
2022/06/30 05:02:13;;;;;;;9.15;2.13;;;;;;;19.02;75.60;101091.38;4990477;28;20019;-37
2022/06/30 05:04:38;;;;;;;9.85;2.33;;;;;;;19.18;73.92;101094.53;4990370;28;20030;-35
2022/06/30 05:07:04;;;;;;;6.32;1.98;;;;;;;19.18;74.01;101091.78;4990165;28;20027;-34
2022/06/30 05:09:29;;;;;;;3.45;1.88;;;;;;;19.26;72.85;101092.28;4990177;28;20027;-34
2022/06/30 05:11:54;;;;;;;9.05;2.05;;;;;;;19.21;73.26;101094.88;4990358;28;20040;-35
2022/06/30 05:14:20;;;;;;;12.25;2.13;;;;;;;19.21;72.16;101102.22;4990084;28;20397;-35
2022/06/30 05:16:46;;;;;;;5.53;2.13;;;;;;;19.19;72.80;101101.63;4990464;28;20070;-35
2022/06/30 05:19:11;;;;;;;7.53;2.17;;;;;;;19.13;72.27;101108.03;4990244;28;20046;-34
2022/06/30 05:21:36;;;;;;;9.05;2.10;;;;;;;18.85;72.39;101095.81;4990432;28;20062;-37
2022/06/30 05:26:46;;;;;;;8.13;1.70;;;;;;;18.69;73.74;101104.59;4987739;28;20080;-35
2022/06/30 05:29:11;;;;;;;9.40;2.22;;;;;;;18.68;74.33;101105.66;4990503;28;20350;-34
2022/06/30 05:31:36;;;;;;;8.52;2.13;;;;;;;18.50;74.75;101104.63;4989657;28;20176;-34
2022/06/30 05:34:02;;;;;;;10.07;2.03;;;;;;;18.39;74.24;101083.59;4990367;28;20366;-34
2022/06/30 05:36:27;;;;;;;4.18;1.88;;;;;;;18.21;73.90;101078.97;4989948;28;20073;-34
2022/06/30 05:38:52;;;;;;;8.73;2.00;;;;;;;18.20;74.92;101083.59;4990376;28;20061;-38
2022/06/30 05:41:18;;;;;;;5.43;1.67;;;;;;;18.33;73.99;101089.97;4990697;28;20034;-34
2022/06/30 05:43:43;;;;;;;7.80;2.03;;;;;;;18.49;73.88;101088.50;4993917;28;20018;-36
2022/06/30 05:46:08;;;;;;;7.05;1.88;;;;;;;18.65;72.81;101074.25;4993095;28;20413;-34
2022/06/30 05:48:34;;;;;;;12.00;2.15;;;;;;;18.77;72.39;101064.28;4993933;28;20038;-35
2022/06/30 05:50:59;;;;;;;9.07;1.65;;;;;;;18.91;71.87;101066.81;4993460;28;20030;-34
2022/06/30 05:53:24;;;;;;;7.85;2.10;;;;;;;18.97;70.91;101066.69;4993163;28;20077;-35
2022/06/30 05:55:50;;;;;;;7.97;1.90;;;;;;;19.13;71.58;101075.28;4993188;28;20453;-35
2022/06/30 05:58:16;;;;;;;9.40;1.77;;;;;;;19.23;71.28;101091.94;4993524;28;20396;-35
2022/06/30 06:00:42;;;;;;;9.40;2.00;;;;;;;19.45;70.91;101087.56;4993546;28;20033;-34
2022/06/30 06:03:07;;;;;;;7.18;1.83;;;;;;;19.58;69.82;101093.88;4992856;28;20026;-33
2022/06/30 06:05:33;;;;;;;9.40;2.20;;;;;;;19.69;68.44;101080.25;4993186;28;20026;-34
2022/06/30 06:08:08;;;;;;;7.78;1.88;;;;;;;19.81;68.39;101083.00;4992089;28;20461;-35
2022/06/30 06:10:34;;;;;;;9.27;2.88;;;;;;;19.93;67.56;101081.13;4992929;28;20485;-34
2022/06/30 06:12:59;;;;;;;6.93;1.85;;;;;;;20.01;67.35;101101.78;4992416;28;20109;-35
2022/06/30 06:15:25;;;;;;;7.80;2.97;;;;;;;20.09;67.53;101084.16;4991487;28;20030;-34
2022/06/30 06:17:50;;;;;;;5.18;1.63;;;;;;;20.18;66.77;101083.56;4992761;28;20062;-36
2022/06/30 06:20:17;;;;;;;16.10;3.75;;;;;;;20.22;65.49;101092.13;4993289;28;20057;-35
2022/06/30 06:22:43;;;;;;;8.02;2.10;;;;;;;20.38;65.45;101087.84;4992884;28;20467;-35
2022/06/30 06:25:09;;;;;;;5.50;1.75;;;;;;;20.50;64.44;101085.06;4993154;28;20030;-35
2022/06/30 06:27:35;;;;;;;9.60;2.05;;;;;;;20.74;64.42;101094.88;4993043;28;20026;-36
2022/06/30 06:30:05;;;;;;;6.68;1.80;;;;;;;21.06;63.52;101086.16;4992722;28;20027;-36
2022/06/30 06:32:31;;;;;;;7.85;1.83;;;;;;;21.39;62.36;101092.81;4992990;28;20026;-35
2022/06/30 06:34:57;;;;;;;10.23;2.42;;;;;;;21.74;61.21;101091.72;4993134;28;20100;-38
2022/06/30 06:37:22;;;;;;;4.80;1.27;;;;;;;22.12;60.49;101091.75;4993273;28;20402;-37
2022/06/30 06:39:48;;;;;;;4.25;1.50;;;;;;;22.47;57.20;101087.84;4993112;28;20054;-36
2022/06/30 06:42:13;;;;;;;7.55;1.40;;;;;;;22.76;56.25;101087.63;4992730;28;20402;-35
2022/06/30 06:44:38;;;;;;;8.00;1.95;;;;;;;22.94;55.98;101101.00;4993390;28;20026;-35
2022/06/30 06:47:05;;;;;;;11.57;2.45;;;;;;;22.94;54.88;101092.78;4992776;28;20037;-34
2022/06/30 06:49:30;;;;;;;10.02;1.90;;;;;;;22.71;54.41;101087.56;4992639;28;20027;-34
2022/06/30 06:51:56;;;;;;;4.88;1.80;;;;;;;22.66;54.09;101095.75;4992897;28;20089;-34
2022/06/30 06:54:21;;;;;;;6.60;1.90;;;;;;;22.75;55.14;101097.78;4992276;28;20030;-34
2022/06/30 06:56:47;;;;;;;4.07;1.20;;;;;;;22.86;54.24;101101.47;4993430;28;20026;-34
2022/06/30 06:59:12;;;;;;;7.15;2.05;;;;;;;23.12;53.40;101118.25;4992873;28;20066;-35
2022/06/30 07:01:38;;;;;;;8.15;1.67;;;;;;;23.49;52.91;101114.75;4993217;28;20163;-33
2022/06/30 07:04:03;;;;;;;6.18;1.58;;;;;;;24.01;50.21;101122.31;4993028;28;20028;-36
2022/06/30 07:06:29;;;;;;;3.22;1.20;;;;;;;24.19;50.17;101130.13;4993106;28;20026;-35
2022/06/30 07:08:54;;;;;;;3.83;1.45;;;;;;;24.59;48.61;101125.94;4992638;28;20077;-35
2022/06/30 07:11:20;;;;;;;5.45;1.50;;;;;;;25.19;48.09;101138.25;4991884;28;20035;-35
2022/06/30 07:13:45;;;;;;;5.10;1.40;;;;;;;25.46;48.23;101137.22;4992084;28;20117;-33
2022/06/30 07:16:11;;;;;;;5.80;1.65;;;;;;;25.28;47.82;101146.84;4992459;28;20023;-34
2022/06/30 07:18:36;;;;;;;6.65;1.75;;;;;;;25.97;46.63;101147.44;4989974;28;20155;-33
2022/06/30 07:21:02;;;;;;;5.45;1.20;;;;;;;26.03;46.42;101152.66;4992026;28;20063;-34
2022/06/30 07:23:27;;;;;;;5.68;1.58;;;;;;;26.05;46.99;101138.59;4992470;28;20034;-35
2022/06/30 07:25:53;;;;;;;5.28;1.60;;;;;;;26.47;46.20;101137.38;4992655;28;20026;-34
2022/06/30 07:28:18;;;;;;;9.63;1.95;;;;;;;26.94;45.23;101136.09;4991789;28;20095;-34
2022/06/30 07:30:44;;;;;;;5.28;1.50;;;;;;;27.40;42.34;101138.56;4992581;28;20022;-33
2022/06/30 07:33:10;;;;;;;5.68;1.88;;;;;;;27.61;43.41;101141.19;4992612;28;20502;-33
2022/06/30 07:35:35;;;;;;;4.90;1.38;;;;;;;27.81;41.38;101152.13;4992276;28;20457;-33
2022/06/30 07:38:00;;;;;;;5.80;1.40;;;;;;;27.61;41.86;101157.78;4992881;28;20497;-34
2022/06/30 07:40:26;;;;;;;5.32;1.60;;;;;;;28.12;41.72;101163.72;4992879;28;20026;-34
2022/06/30 07:42:52;;;;;;;5.72;1.60;;;;;;;27.62;41.83;101157.50;4992560;28;20026;-36
2022/06/30 07:45:18;;;;;;;7.55;1.65;;;;;;;27.63;42.50;101156.38;4993060;28;20042;-33
2022/06/30 07:47:44;;;;;;;7.35;1.60;;;;;;;28.11;41.66;101166.75;4992641;28;20019;-33
2022/06/30 07:50:10;;;;;;;6.82;1.77;;;;;;;28.71;41.57;101163.63;4992507;28;20033;-34
2022/06/30 07:52:35;;;;;;;6.93;1.90;;;;;;;28.87;40.81;101173.38;4992889;28;20026;-34
2022/06/30 07:55:02;;;;;;;6.00;1.48;;;;;;;29.13;40.16;101170.31;4992416;28;20022;-34
2022/06/30 07:57:28;;;;;;;4.57;1.40;;;;;;;29.43;39.11;101174.56;4992582;28;20037;-33
2022/06/30 07:59:53;;;;;;;4.87;1.30;;;;;;;29.87;38.01;101174.16;4992602;28;20030;-33
2022/06/30 08:02:19;;;;;;;4.17;1.33;;;;;;;29.71;36.64;101178.31;4992369;28;20049;-34
2022/06/30 08:04:44;;;;;;;7.17;1.50;;;;;;;29.70;36.10;101182.19;4992284;28;20101;-34
2022/06/30 08:07:10;;;;;;;5.55;1.40;;;;;;;29.63;36.32;101178.97;4991979;28;20030;-33
2022/06/30 08:09:36;;;;;;;6.27;1.30;;;;;;;29.87;35.28;101181.66;4992283;28;20058;-35
2022/06/30 08:12:01;;;;;;;4.03;1.20;;;;;;;29.72;36.43;101185.50;4992312;28;20037;-34
2022/06/30 08:14:26;;;;;;;4.33;1.37;;;;;;;29.97;35.91;101185.06;4992287;28;20033;-34
2022/06/30 08:16:52;;;;;;;9.30;1.93;;;;;;;30.30;34.83;101185.03;4991920;28;20061;-35
2022/06/30 08:19:19;;;;;;;16.00;1.97;;;;;;;30.78;33.28;101187.44;4990793;28;20068;-34
2022/06/30 08:21:45;;;;;;;23.75;2.60;;;;;;;30.26;36.00;101183.22;4992044;28;20393;-34
2022/06/30 08:24:10;;;;;;;4.83;1.47;;;;;;;29.93;35.87;101178.47;4992181;28;20045;-34
2022/06/30 08:26:35;;;;;;;1.93;1.17;;;;;;;30.44;35.59;101181.44;4991677;28;20277;-34
2022/06/30 08:29:01;;;;;;;6.53;1.40;;;;;;;29.90;35.89;101181.84;4991725;28;20049;-34
2022/06/30 08:31:28;;;;;;;3.97;1.30;;;;;;;29.54;36.31;101187.97;4990590;28;20026;-34
2022/06/30 08:33:54;;;;;;;;;;;;;;;28.99;37.63;101182.09;4991669;28;20022;-34
2022/06/30 08:36:20;;;;;;;5.40;1.45;;;;;;;28.84;38.29;101180.34;4991543;28;19917;-33
2022/06/30 08:38:45;;;;;;;7.13;1.17;;;;;;;29.19;37.63;101185.72;4991858;28;20034;-33
2022/06/30 08:43:56;;;;;;;4.78;1.48;;;;;;;30.09;35.51;101172.66;4991917;28;20045;-34
2022/06/30 08:46:23;;;;;;;4.10;1.55;;;;;;;30.51;34.50;101170.75;4991644;28;20034;-34
2022/06/30 08:48:49;;;;;;;4.50;1.48;;;;;;;30.75;35.31;101171.34;4991403;28;20022;-34
2022/06/30 08:51:15;;;;;;;3.63;1.50;;;;;;;31.01;33.55;101168.06;4991583;28;20061;-34
2022/06/30 08:53:46;;;;;;;4.68;1.42;;;;;;;30.80;34.74;101181.56;4990417;28;20113;-32
2022/06/30 08:56:12;;;;;;;7.18;2.33;;;;;;;31.32;34.42;101179.31;4991376;28;20109;-33
2022/06/30 08:58:38;;;;;;;3.45;1.35;;;;;;;31.37;34.19;101181.16;4991685;28;20023;-34
2022/06/30 09:01:05;;;;;;;4.20;1.40;;;;;;;30.90;35.28;101180.56;4990297;28;20462;-34
2022/06/30 09:03:31;;;;;;;5.18;1.50;;;;;;;31.41;33.50;101187.75;4990060;28;20453;-33
2022/06/30 09:05:56;;;;;;;3.93;1.30;;;;;;;30.12;35.47;101195.09;4991491;28;20026;-33
2022/06/30 09:08:21;;;;;;;4.90;1.80;;;;;;;30.57;35.33;101189.81;4991553;28;20026;-33
2022/06/30 09:10:53;;;;;;;4.50;1.30;;;;;;;30.69;34.83;101188.47;4990858;28;20376;-34
2022/06/30 09:13:19;;;;;;;6.90;1.65;;;;;;;30.19;35.71;101200.22;4990942;28;20034;-33
2022/06/30 09:15:45;;;;;;;6.50;1.63;;;;;;;30.35;35.61;101193.28;4990835;28;20054;-33
2022/06/30 09:18:25;;;;;;;5.00;1.50;;;;;;;30.06;35.58;101189.91;4994070;28;20423;-33
2022/06/30 09:20:50;;;;;;;5.32;1.40;;;;;;;29.41;37.84;101188.75;4994769;28;20029;-34
2022/06/30 09:23:29;;;;;;;7.63;1.50;;;;;;;29.81;36.91;101200.34;4994584;28;20026;-34
2022/06/30 09:25:56;;;;;;;8.73;1.52;;;;;;;30.30;36.48;101204.47;4994379;28;20065;-33
2022/06/30 09:28:39;;;;;;;4.68;1.25;;;;;;;30.75;35.91;101201.91;4993974;28;20050;-34
2022/06/30 09:31:04;;;;;;;5.78;1.38;;;;;;;30.73;35.61;101197.81;4993893;28;20026;-33
2022/06/30 09:33:36;;;;;;;4.53;1.77;;;;;;;31.30;35.03;101198.25;4994376;28;20037;-33
2022/06/30 09:36:25;;;;;;;8.18;1.42;;;;;;;31.49;34.51;101206.47;4994041;28;20046;-33
2022/06/30 09:39:20;;;;;;;7.72;1.50;;;;;;;31.48;35.00;101216.78;4993975;28;20073;-33
2022/06/30 09:41:47;;;;;;;5.15;1.70;;;;;;;31.44;33.65;101214.97;4972213;28;20042;-36
2022/06/30 09:44:15;;;;;;;15.00;8.90;;;;;;;31.48;34.91;101204.84;4994009;28;20057;-33
2022/06/30 09:47:00;;;;;;;3.95;1.58;;;;;;;31.80;34.07;101194.59;4992114;28;20066;-34
2022/06/30 09:49:39;;;;;;;4.10;1.70;;;;;;;31.28;34.96;101209.72;4993725;28;20049;-33
2022/06/30 09:52:25;;;;;;;6.05;1.70;;;;;;;31.60;34.72;101207.88;4994179;28;20081;-34
2022/06/30 09:54:52;;;;;;;7.00;1.65;;;;;;;31.73;35.35;101210.91;4993684;28;20093;-34
2022/06/30 09:57:17;;;;;;;;;;;;;;;31.40;34.27;101217.53;4991513;28;20022;-34
2022/06/30 09:59:43;;;;;;;6.77;1.73;;;;;;;31.18;34.18;101223.84;4991315;28;19913;-34
2022/06/30 10:02:10;;;;;;;5.70;1.50;;;;;;;30.78;35.11;101220.78;4977503;28;20030;-34
2022/06/30 10:05:08;;;;;;;6.38;1.17;;;;;;;30.37;35.96;101221.56;4977335;28;20051;-35
2022/06/30 10:07:35;;;;;;;5.18;1.40;;;;;;;30.13;37.50;101226.44;4971227;28;20086;-34
2022/06/30 10:10:06;;;;;;;3.83;1.23;;;;;;;29.93;37.29;101219.28;4976334;28;20074;-34
2022/06/30 10:12:32;;;;;;;3.75;1.10;;;;;;;29.95;35.92;101220.63;4974628;28;20026;-34
2022/06/30 10:14:57;;;;;;;5.15;1.10;;;;;;;29.70;37.56;101221.03;4991804;28;20034;-35
2022/06/30 10:17:28;;;;;;;5.35;1.67;;;;;;;29.20;39.34;101229.78;4993273;28;20022;-34
2022/06/30 10:19:54;;;;;;;5.75;1.20;;;;;;;29.15;37.98;101229.88;4991864;28;20470;-34
2022/06/30 10:22:22;;;;;;;4.65;1.40;;;;;;;29.39;38.63;101228.97;4993535;28;20110;-34
2022/06/30 10:24:49;;;;;;;5.55;1.38;;;;;;;29.88;37.12;101224.91;4992829;28;20509;-35
2022/06/30 10:27:15;;;;;;;6.05;1.27;;;;;;;30.09;36.25;101228.16;4992707;28;20026;-34
2022/06/30 10:30:14;;;;;;;6.43;1.42;;;;;;;29.72;36.76;101236.25;4991942;28;20052;-34
2022/06/30 10:33:00;;;;;;;2.38;1.05;;;;;;;29.52;38.26;101236.56;4980734;28;20104;-34
2022/06/30 10:35:40;;;;;;;6.47;1.63;;;;;;;29.25;37.81;101231.66;4992665;28;20055;-34
2022/06/30 10:38:28;;;;;;;4.32;1.23;;;;;;;29.47;38.04;101237.44;4992396;28;20037;-34
2022/06/30 10:41:11;;;;;;;4.93;1.20;;;;;;;30.00;37.43;101238.31;4992926;28;20041;-37
2022/06/30 10:44:05;;;;;;;4.70;1.63;;;;;;;30.30;37.87;101242.53;4991814;28;20359;-35
2022/06/30 10:46:31;;;;;;;3.65;1.20;;;;;;;30.30;36.55;101240.56;4992754;28;20030;-34
2022/06/30 10:48:57;;;;;;;2.38;0.88;;;;;;;29.81;37.00;101253.06;4992606;28;20034;-35
2022/06/30 10:51:24;;;;;;;5.28;1.60;;;;;;;29.26;38.35;101238.88;4992779;28;20038;-34
2022/06/30 10:53:56;;;;;;;4.60;1.60;;;;;;;28.49;40.02;101225.06;4992699;28;20026;-35
2022/06/30 10:56:41;;;;;;;5.18;1.33;;;;;;;28.36;40.76;101243.19;4992934;28;20034;-34
2022/06/30 10:59:10;;;;;;;4.30;1.20;;;;;;;27.96;41.05;101234.97;4973468;28;20086;-34
2022/06/30 11:01:36;;;;;;;3.47;1.25;;;;;;;27.71;42.48;101230.41;4989393;28;20082;-33
2022/06/30 11:04:03;;;;;;;7.55;1.65;;;;;;;27.36;42.09;101235.06;4992863;28;20403;-33
2022/06/30 11:06:54;;;;;;;4.30;1.52;;;;;;;26.99;43.06;101240.19;4992299;28;20334;-35
2022/06/30 11:09:49;;;;;;;3.75;1.20;;;;;;;26.52;43.99;101235.94;4973182;28;20050;-33
2022/06/30 11:12:16;;;;;;;4.80;1.20;;;;;;;26.11;45.89;101238.72;4984043;28;20045;-33
2022/06/30 11:14:52;;;;;;;8.52;1.85;;;;;;;25.71;47.97;101248.59;4991803;28;20504;-34
2022/06/30 11:17:37;;;;;;;3.08;1.27;;;;;;;25.47;47.13;101246.34;4992286;28;20558;-33
2022/06/30 11:20:04;;;;;;;3.58;1.40;;;;;;;25.00;47.26;101239.00;4990698;28;20030;-34
2022/06/30 11:22:30;;;;;;;4.90;1.60;;;;;;;24.69;48.34;101232.50;4991914;28;20054;-33
2022/06/30 11:24:58;;;;;;;4.88;1.50;;;;;;;24.38;50.06;101225.94;4989796;28;20109;-34
2022/06/30 11:27:25;;;;;;;3.60;1.42;;;;;;;24.26;50.55;101213.22;4991565;28;20068;-33
2022/06/30 11:29:59;;;;;;;3.88;1.40;;;;;;;24.13;50.96;101213.69;4981526;28;20042;-33
2022/06/30 11:32:24;;;;;;;3.25;1.55;;;;;;;24.18;50.23;101210.16;4974199;28;20054;-34
2022/06/30 11:34:50;;;;;;;14.93;1.92;;;;;;;24.03;51.32;101219.09;4977837;28;20046;-33
2022/06/30 11:37:22;;;;;;;2.72;1.10;;;;;;;24.03;50.64;101214.44;4991392;28;20030;-34
2022/06/30 11:40:09;;;;;;;2.78;1.10;;;;;;;24.21;51.19;101212.38;4991107;28;20105;-34